createdAt,value
2023-08-14T00:07:39.692Z,93.16
2023-08-14T00:17:41.249Z,95.70
2023-08-14T00:27:42.720Z,96.89
2023-08-14T00:37:49.115Z,94.75
2023-08-14T00:47:50.916Z,97.13
2023-08-14T00:57:53.304Z,96.39
2023-08-14T01:07:54.950Z,91.31
2023-08-14T01:18:00.632Z,96.60
2023-08-14T01:28:03.005Z,96.20
2023-08-14T01:38:17.838Z,97.27
2023-08-14T01:48:23.385Z,98.21
2023-08-14T01:58:24.902Z,100.00
2023-08-14T02:08:26.438Z,97.77
2023-08-14T02:18:27.844Z,100.00
2023-08-14T02:28:29.377Z,100.00
2023-08-14T02:38:31.713Z,100.00
2023-08-14T02:48:33.276Z,100.00
2023-08-14T02:58:36.925Z,100.00
2023-08-14T03:08:38.486Z,96.20
2023-08-14T03:18:40.048Z,98.02
2023-08-14T03:28:41.806Z,96.09
2023-08-14T03:38:43.362Z,100.00
2023-08-14T03:48:44.889Z,100.00
2023-08-14T03:58:46.378Z,98.03
2023-08-14T04:08:47.975Z,97.53
2023-08-14T04:18:49.553Z,91.55
2023-08-14T04:28:51.086Z,94.12
2023-08-14T04:38:52.640Z,94.88
2023-08-14T04:48:54.164Z,93.96
2023-08-14T04:58:55.703Z,93.67
2023-08-14T05:08:58.009Z,91.75
2023-08-14T05:19:00.585Z,92.08
2023-08-14T05:29:02.269Z,93.00
2023-08-14T05:39:03.962Z,94.51
2023-08-14T05:49:05.898Z,94.39
2023-08-14T05:59:07.898Z,94.01
2023-08-14T06:09:09.339Z,93.18
2023-08-14T06:19:10.943Z,92.89
2023-08-14T06:29:12.367Z,93.67
2023-08-14T06:39:13.834Z,93.49
2023-08-14T06:49:15.366Z,90.01
2023-08-14T06:59:16.973Z,91.05
2023-08-14T07:09:18.579Z,91.97
2023-08-14T07:19:20.225Z,89.05
2023-08-14T07:29:21.673Z,88.92
2023-08-14T07:39:24.378Z,88.60
2023-08-14T07:49:25.977Z,88.79
2023-08-14T07:59:27.559Z,89.03
2023-08-14T08:09:29.070Z,89.42
2023-08-14T08:19:30.470Z,88.21
2023-08-14T08:29:32.131Z,86.55
2023-08-14T08:39:33.674Z,85.67
2023-08-14T08:49:38.320Z,84.42
2023-08-14T08:59:41.437Z,83.41
2023-08-14T09:09:43.660Z,83.63
2023-08-14T09:19:46.263Z,79.64
2023-08-14T09:29:47.892Z,75.56
2023-08-14T09:39:57.406Z,77.87
2023-08-14T09:49:59.934Z,75.83
2023-08-14T10:00:01.634Z,72.76
2023-08-14T10:10:04.751Z,75.09
2023-08-14T10:20:07.152Z,73.26
2023-08-14T10:30:09.338Z,74.80
2023-08-14T10:40:19.582Z,70.71
2023-08-14T10:50:25.435Z,67.15
2023-08-14T11:00:27.036Z,73.66
2023-08-14T11:10:28.526Z,72.62
2023-08-14T11:20:31.157Z,69.75
2023-08-14T11:30:35.125Z,72.12
2023-08-14T11:40:40.546Z,66.01
2023-08-14T11:50:48.244Z,67.05
2023-08-14T12:00:51.672Z,71.40
2023-08-14T12:10:53.189Z,66.74
2023-08-14T12:20:55.407Z,64.58
2023-08-14T12:30:56.991Z,67.99
2023-08-14T12:40:59.651Z,65.92
2023-08-14T12:51:03.483Z,65.47
2023-08-14T13:01:05.942Z,67.33
2023-08-14T13:11:07.993Z,71.01
2023-08-14T13:21:09.649Z,67.17
2023-08-14T13:31:11.133Z,69.51
2023-08-14T13:41:13.046Z,65.98
2023-08-14T13:51:14.652Z,67.16
2023-08-14T14:01:16.131Z,70.87
2023-08-14T14:11:17.728Z,66.68
2023-08-14T14:21:19.253Z,66.66
2023-08-14T14:31:20.734Z,69.14
2023-08-14T14:41:22.314Z,68.92
2023-08-14T14:51:24.362Z,70.58
2023-08-14T15:01:25.971Z,68.87
2023-08-14T15:11:27.673Z,68.76
2023-08-14T15:21:29.901Z,67.95
2023-08-14T15:31:31.701Z,69.14
2023-08-14T15:41:33.284Z,68.87
2023-08-14T15:51:34.745Z,69.43
2023-08-14T16:01:36.341Z,70.35
2023-08-14T16:11:37.925Z,71.33
2023-08-14T16:21:39.755Z,72.12
2023-08-14T16:31:41.451Z,71.96
2023-08-14T16:41:43.456Z,73.09
2023-08-14T16:51:44.993Z,72.70
2023-08-14T17:01:46.542Z,74.18
2023-08-14T17:11:48.207Z,74.58
2023-08-14T17:21:50.944Z,75.83
2023-08-14T17:31:53.824Z,76.27
2023-08-14T17:41:57.292Z,76.79
2023-08-14T17:51:58.877Z,76.30
2023-08-14T18:02:00.538Z,76.08
2023-08-14T18:12:02.243Z,77.33
2023-08-14T18:22:03.782Z,78.31
2023-08-14T18:32:07.655Z,78.68
2023-08-14T18:42:09.147Z,78.77
2023-08-14T18:52:10.639Z,79.49
2023-08-14T19:02:12.586Z,79.51
2023-08-14T19:12:14.334Z,80.83
2023-08-14T19:22:17.462Z,80.19
2023-08-14T19:32:19.078Z,80.80
2023-08-14T19:42:20.624Z,80.45
2023-08-14T19:52:22.149Z,81.15
2023-08-14T20:02:23.686Z,80.57
2023-08-14T20:12:25.177Z,83.21
2023-08-14T20:22:26.707Z,82.09
2023-08-14T20:32:28.270Z,83.48
2023-08-14T20:42:29.738Z,82.71
2023-08-14T20:52:31.245Z,83.03
2023-08-14T21:02:32.781Z,83.41
2023-08-14T21:12:34.355Z,85.23
2023-08-14T21:22:35.761Z,85.78
2023-08-14T21:32:38.159Z,86.64
2023-08-14T21:42:39.724Z,86.32
2023-08-14T21:52:41.144Z,86.84
2023-08-14T22:02:42.661Z,85.38
2023-08-14T22:12:45.798Z,86.65
2023-08-14T22:22:47.640Z,86.70
2023-08-14T22:32:49.458Z,88.15
2023-08-14T22:42:51.033Z,87.50
2023-08-14T22:52:52.471Z,88.20
2023-08-14T23:02:57.775Z,89.79
2023-08-14T23:12:59.350Z,88.74
2023-08-14T23:23:00.861Z,88.11
2023-08-14T23:33:02.469Z,89.92
2023-08-14T23:43:04.078Z,91.89
2023-08-14T23:53:05.542Z,89.38
